Portada
METAR-TAF:

METAR-TAF

Aeroports :

Lahr, Alemanya

latitud: 48-22-09N, longitud: 007-49-40E, altitud: 156 m

Observació

L'informe es va fer fa 2 hores i 11 minuts, a les 14:50 UTC
Vent 8 kt del Nord/Nord-Est, variant entre Nord/Nord-Oest i Est/Nord-Est
Temperatura 12°C
Humitat 35%
Pressió 1017 hPa
Visibilitat 10 km o més
sense núvols per sota de 1500 mi sense presència de cumulonimbus.

METAR: EDTL 011450Z 02008KT 330V060 CAVOK 12/M03 Q1017

Hora: 19:01 (17:01 UTC)

Pronòstic

L'informe es va fer fa 3 hores i 1 minuts, a les 14:00 UTC
Pronòstic vàlid del 01 a les 15 UTC al 01 a les 24 UTC
Vent 7 kt del Nord
Visibilitat 10 km o més
sense núvols per sota de 1500 mi sense presència de cumulonimbus.
Evolucionant progressivament
l' 01 a les 18 UTC al 01 a les 20 UTC
Vent 3 kt amb direcció variable

TAF: EDTL 011400Z 0115/0124 01007KT CAVOK BECMG 0118/0120 VRB03KT

Observacions i pronòstics meteorològics de més de 4000 aeroports (METAR i TAF).

Les estacions disponibles són els punts grocs i vermells al mapa.

Posi el ratolí al punt desitjat per veure el nom de l'estació.

Feu clic per veure les observacions i els pronòstics meteorològics.

Per canviar el mapa: feu clic els botons verds amb una creu de color negre per apropar; al botó verd amb un guió per allunyar la imatge; o en les fletxes verdes per a mapes adjacents.


METAR-TAF: